METAR AND TAF INFORMATION
METAR FOR TNCC
ADDS - METARS form results

(1508 UTC 18 June 2019)
Data provider http://aviationweather.gov/metar/data/
 
METAR text: TNCC 181500Z 11020KT 9999 SCT028 31/22 Q1015 NOSIG
Conditions at: TNCC (HATO AIR CURACAO, VI) observed 1500 UTC 18 June 2019
Temperature: 31.0°C (88°F)
Dewpoint: 22.0°C (72°F) [RH = 59%]
Pressure (altimeter): 29.97 inches Hg (1015.0 mb)
Winds: from the ESE (110 degrees) at 23 MPH (20 knots; 10.3 m/s)
Visibility: 6 or more miles (10+ km)
Ceiling: at least 12,000 feet AGL
Clouds: scattered clouds at 2800 feet AGL
Weather: no significant weather observed at this time

METAR text: TNCC 181448Z AUTO 11018KT 9999 NCD 31/22 Q1015
Conditions at: TNCC (HATO AIR CURACAO, VI) observed 1448 UTC 18 June 2019
Temperature: 31.0°C (88°F)
Dewpoint: 22.0°C (72°F) [RH = 59%]
Pressure (altimeter): 29.97 inches Hg (1015.0 mb)
Winds: from the ESE (110 degrees) at 21 MPH (18 knots; 9.3 m/s)
Visibility: 6 or more miles (10+ km)
Ceiling: at least 12,000 feet AGL
Clouds: sky clear below 12,000 feet AGL
Weather: no significant weather observed at this time

Forecast for: TNCC (HATO AIR CURACAO, VI)
Text: TAF TNCC 181055Z 1812/1912 10014G24KT 9999 SCT020
Forecast period: 1200 UTC 18 June 2019 to 1200 UTC 19 June 2019
Forecast type: FROM: standard forecast or significant change
Winds: from the E (100 degrees) at 16 MPH (14 knots; 7.2 m/s)
gusting to 28 MPH (24 knots; 12.3 m/s)
Visibility: 6 or more miles 10+ km)
Ceiling: at least 12,000 feet AGL
Clouds: scattered clouds at 2000 feet AGL
Weather: no significant weather forecast for this period
Text: TEMPO 1812/1815 8000 SHRA BKN015
Forecast period: 1200 to 1500 UTC 18 June 2019
Forecast type: TEMPORARY: The following changes expected for less than half the time period
Visibility: 5 miles (8 km)
Ceiling: 1500 feet AGL
Clouds: broken clouds at 1500 feet AGL
Weather: SHRA  (rain showers)
Text: PROB30
Forecast period: 1200 to 1400 UTC 18 June 2019
Forecast type: TEMPORARY: The following changes expected for less than half the time period
Winds: variable direction winds at 21 MPH (18 knots; 9.3 m/s)
gusting to 32 MPH (28 knots; 14.4 m/s)
Visibility: 2.49 miles (4.01 km)
Ceiling: at least 12,000 feet AGL
Clouds: scattered clouds at 1000 feet AGL
Weather: TSRA  (rain associated with thunderstorm(s))

 AIRPORT MAP

 RUNWAY INFORMATION
Runway 11 Runway length 11188 ft Runway width 197 ft
Runway elevation 25 ft Runway displaced threshold 2723 ft Runway heading 102
Runway 29 Runway length 11188 ft Runway width 197 ft
Runway elevation 29 ft Runway displaced threshold 0 ft Runway heading 282

 AIRPORT FREQUENCIES
Type APP Name APP Frequency 119.6 MHZ
Type MISC Name CATS SVC Frequency 131.8 MHZ
Type OPS Name DUTCH OPS Frequency 24.02 MHZ
Type POST Name IGUANA OPS Frequency 25 MHZ
Type TWR Name TWR Frequency 118.3 MHZ

 AIRPORT NEAR NAVIGATION AIDS
Type TACAN Name Hato Frequency 134100 KHZ
Type VOR-DME Name Curacao Frequency 116700 KHZ


Powered by Virtual Airlines Manager